createdAt,value
2019-05-15T00:02:48.275Z,99794.60
2019-05-15T00:07:51.264Z,99795.22
2019-05-15T00:12:54.554Z,99790.66
2019-05-15T00:17:57.941Z,99784.89
2019-05-15T00:23:02.823Z,99779.20
2019-05-15T00:28:05.806Z,99773.16
2019-05-15T00:33:09.675Z,99765.91
2019-05-15T00:38:12.723Z,99761.27
2019-05-15T00:43:18.390Z,99761.20
2019-05-15T00:48:21.511Z,99751.98
2019-05-15T00:53:24.477Z,99755.11
2019-05-15T00:58:29.335Z,99743.66
2019-05-15T01:03:32.329Z,99738.31
2019-05-15T01:08:35.280Z,99743.47
2019-05-15T01:13:39.018Z,99741.22
2019-05-15T01:18:42.246Z,99727.05
2019-05-15T01:23:45.263Z,99724.53
2019-05-15T01:28:49.425Z,99724.97
2019-05-15T01:33:52.894Z,99715.70
2019-05-15T01:38:55.866Z,99701.97
2019-05-15T01:43:58.834Z,99692.87
2019-05-15T01:49:02.269Z,99697.89
2019-05-15T01:54:05.228Z,99692.63
2019-05-15T01:59:08.684Z,99682.98
2019-05-15T02:04:11.971Z,99679.84
2019-05-15T02:09:14.914Z,99674.44
2019-05-15T02:14:18.938Z,99674.74
2019-05-15T02:19:22.313Z,99666.81
2019-05-15T02:24:25.289Z,99669.13
2019-05-15T02:29:28.707Z,99661.93
2019-05-15T02:34:31.935Z,99658.52
2019-05-15T02:39:35.275Z,99651.41
2019-05-15T02:44:40.105Z,99645.50
2019-05-15T02:49:43.339Z,99646.57
2019-05-15T02:54:49.534Z,99637.27
2019-05-15T02:59:51.267Z,99632.47
2019-05-15T03:04:54.279Z,99623.06
2019-05-15T03:09:59.909Z,99625.30
2019-05-15T03:15:02.463Z,99615.05
2019-05-15T03:20:10.264Z,99620.56
2019-05-15T03:25:12.036Z,99612.84
2019-05-15T03:30:20.522Z,99610.26
2019-05-15T03:35:22.528Z,99611.33
2019-05-15T03:40:25.122Z,99614.08
2019-05-15T03:45:29.781Z,99606.56
2019-05-15T03:50:33.250Z,99598.25
2019-05-15T03:55:36.300Z,99599.34
2019-05-15T04:00:40.065Z,99591.05
2019-05-15T04:05:43.312Z,99595.98
2019-05-15T04:10:48.775Z,99593.14
2019-05-15T04:15:51.178Z,99595.89
2019-05-15T04:20:54.317Z,99586.45
2019-05-15T04:25:58.905Z,99589.27
2019-05-15T04:31:02.130Z,99584.86
2019-05-15T04:36:05.093Z,99577.31
2019-05-15T04:41:09.662Z,99579.55
2019-05-15T04:46:13.672Z,99577.97
2019-05-15T04:51:19.025Z,99573.47
2019-05-15T04:56:21.905Z,99566.48
2019-05-15T05:01:25.092Z,99573.41
2019-05-15T05:06:29.476Z,99565.51
2019-05-15T05:11:33.510Z,99562.88
2019-05-15T05:16:39.222Z,99564.30
2019-05-15T05:21:41.520Z,99561.09
2019-05-15T05:26:44.594Z,99558.77
2019-05-15T05:31:49.102Z,99560.38
2019-05-15T05:36:52.387Z,99558.45
2019-05-15T05:41:55.387Z,99544.97
2019-05-15T05:46:58.350Z,99547.64
2019-05-15T05:52:01.413Z,99550.98
2019-05-15T05:57:04.404Z,99541.52
2019-05-15T06:02:08.252Z,99536.89
2019-05-15T06:07:14.249Z,99549.80
2019-05-15T06:12:18.705Z,99542.42
2019-05-15T06:17:21.446Z,99547.28
2019-05-15T06:22:24.421Z,99547.28
2019-05-15T06:27:33.376Z,99542.73
2019-05-15T06:32:39.821Z,99549.03
2019-05-15T06:37:42.565Z,99548.34
2019-05-15T06:42:48.520Z,99538.30
2019-05-15T06:47:51.580Z,99539.91
2019-05-15T06:52:54.640Z,99539.11
2019-05-15T06:57:58.408Z,99543.97
2019-05-15T07:03:16.474Z,99543.17
2019-05-15T07:08:08.894Z,99544.91
2019-05-15T07:13:11.470Z,99537.11
2019-05-15T07:18:14.768Z,99538.52
2019-05-15T07:23:19.372Z,99527.85
2019-05-15T07:28:22.495Z,99537.28
2019-05-15T07:33:38.827Z,99532.33
2019-05-15T07:38:30.442Z,99534.25
2019-05-15T07:43:33.477Z,99534.05
2019-05-15T07:48:38.396Z,99525.79
2019-05-15T07:53:41.474Z,99519.73
2019-05-15T07:58:44.448Z,99520.92
2019-05-15T08:03:58.733Z,99519.00
2019-05-15T08:08:52.358Z,99513.30
2019-05-15T08:13:55.338Z,99518.70
2019-05-15T08:18:58.349Z,99513.13
2019-05-15T08:24:01.360Z,99510.97
2019-05-15T08:29:05.780Z,99515.73
2019-05-15T08:34:15.943Z,99518.04
2019-05-15T08:39:13.716Z,99518.86
2019-05-15T08:44:18.681Z,99520.47
2019-05-15T08:49:23.420Z,99523.28
2019-05-15T08:54:28.811Z,99525.45
2019-05-15T08:59:31.429Z,99519.74
2019-05-15T09:04:35.261Z,99526.73
2019-05-15T09:09:39.329Z,99525.92
2019-05-15T09:14:42.402Z,99520.55
2019-05-15T09:19:45.390Z,99511.05
2019-05-15T09:24:48.841Z,99505.47
2019-05-15T09:29:52.169Z,99503.75
2019-05-15T09:34:55.689Z,99494.97
2019-05-15T09:39:58.975Z,99484.30
2019-05-15T09:45:01.945Z,99481.25
2019-05-15T09:50:05.251Z,99474.85
2019-05-15T09:55:09.511Z,99470.01
2019-05-15T10:00:13.671Z,99472.84
2019-05-15T10:05:18.699Z,99462.87
2019-05-15T10:10:22.060Z,99459.25
2019-05-15T10:15:25.533Z,99456.47
2019-05-15T10:20:29.144Z,99455.29
2019-05-15T10:25:32.429Z,99451.78
2019-05-15T10:30:35.586Z,99452.08
2019-05-15T10:35:39.309Z,99448.16
2019-05-15T10:40:58.685Z,99443.94
2019-05-15T10:45:50.042Z,99445.41
2019-05-15T10:50:52.481Z,99436.12
2019-05-15T10:55:55.539Z,99441.48
2019-05-15T11:01:01.779Z,99441.59
2019-05-15T11:06:03.707Z,99442.55
2019-05-15T11:11:08.916Z,99442.25
2019-05-15T11:16:11.627Z,99431.41
2019-05-15T11:21:14.630Z,99429.86
2019-05-15T11:26:19.472Z,99428.95
2019-05-15T11:31:24.754Z,99427.51
2019-05-15T11:36:28.787Z,99422.73
2019-05-15T11:41:31.998Z,99423.78
2019-05-15T11:46:34.963Z,99419.57
2019-05-15T11:51:38.437Z,99415.30
2019-05-15T11:56:41.756Z,99404.72
2019-05-15T12:01:44.873Z,99404.22
2019-05-15T12:06:58.840Z,99397.61
2019-05-15T12:11:53.260Z,99394.56
2019-05-15T12:17:07.097Z,99402.80
2019-05-15T12:22:01.308Z,99394.13
2019-05-15T12:27:13.875Z,99396.34
2019-05-15T12:37:14.160Z,99388.83
2019-05-15T12:39:23.777Z,99394.19
2019-05-15T13:02:38.694Z,99399.05
2019-05-15T13:07:41.787Z,99383.17
2019-05-15T13:12:59.380Z,99383.33
2019-05-15T13:17:52.720Z,99384.48
2019-05-15T13:22:55.256Z,99384.48
2019-05-15T13:27:58.348Z,99382.44
2019-05-15T13:33:01.429Z,99384.58
2019-05-15T13:38:04.477Z,99383.69
2019-05-15T13:43:08.230Z,99379.98
2019-05-15T13:48:11.898Z,99381.25
2019-05-15T13:53:14.924Z,99381.55
2019-05-15T13:58:18.011Z,99370.16
2019-05-15T14:03:21.102Z,99371.20
2019-05-15T14:08:24.095Z,99369.77
2019-05-15T14:13:28.747Z,99361.98
2019-05-15T14:18:32.121Z,99359.92
2019-05-15T14:23:35.120Z,99357.20
2019-05-15T14:28:50.857Z,99348.75
2019-05-15T14:33:58.030Z,99350.01
2019-05-15T14:39:01.332Z,99349.27
2019-05-15T14:44:14.443Z,99344.84
2019-05-15T14:49:09.617Z,99342.19
2019-05-15T14:54:12.626Z,99346.39
2019-05-15T14:59:15.707Z,99338.96
2019-05-15T15:04:18.757Z,99334.12
2019-05-15T15:09:21.759Z,99348.88
2019-05-15T15:14:24.963Z,99346.84
2019-05-15T15:19:29.277Z,99342.36
2019-05-15T15:24:32.559Z,99337.41
2019-05-15T15:29:35.531Z,99343.45
2019-05-15T15:34:38.856Z,99341.97
2019-05-15T15:39:41.978Z,99335.87
2019-05-15T15:44:45.303Z,99338.22
2019-05-15T15:49:48.316Z,99338.03
2019-05-15T15:54:51.324Z,99329.92
2019-05-15T15:59:54.559Z,99330.95
2019-05-15T16:04:58.908Z,99336.61
2019-05-15T16:10:02.400Z,99333.22
2019-05-15T16:15:08.837Z,99337.13
2019-05-15T16:20:12.163Z,99333.73
2019-05-15T16:25:15.275Z,99330.95
2019-05-15T16:30:18.862Z,99331.98
2019-05-15T16:35:22.051Z,99331.18
2019-05-15T16:40:25.071Z,99335.64
2019-05-15T16:45:28.846Z,99331.70
2019-05-15T16:50:32.136Z,99325.66
2019-05-15T16:55:35.195Z,99327.11
2019-05-15T17:00:38.586Z,99319.33
2019-05-15T17:05:42.227Z,99319.84
2019-05-15T17:10:45.272Z,99319.04
2019-05-15T17:15:49.306Z,99327.34
2019-05-15T17:20:52.329Z,99334.64
2019-05-15T17:25:57.927Z,99337.64
2019-05-15T17:31:00.320Z,99340.06
2019-05-15T17:36:03.309Z,99340.22
2019-05-15T17:41:08.326Z,99340.28
2019-05-15T17:46:11.511Z,99336.31
2019-05-15T17:51:14.799Z,99331.83
2019-05-15T17:56:17.808Z,99323.69
2019-05-15T18:01:20.925Z,99333.09
2019-05-15T18:06:24.143Z,99347.58
2019-05-15T18:11:27.820Z,99347.41
2019-05-15T18:16:31.053Z,99349.45
2019-05-15T18:21:35.138Z,99356.05
2019-05-15T18:26:38.677Z,99340.58
2019-05-15T18:31:41.912Z,99329.01
2019-05-15T18:36:44.920Z,99333.36
2019-05-15T18:41:48.524Z,99329.23
2019-05-15T18:46:51.685Z,99318.05
2019-05-15T18:51:54.915Z,99308.66
2019-05-15T18:56:58.456Z,99319.36
2019-05-15T19:02:01.804Z,99332.59
2019-05-15T19:07:05.455Z,99324.36
2019-05-15T19:12:09.205Z,99313.20
2019-05-15T19:17:12.609Z,99301.73
2019-05-15T19:22:15.565Z,99308.41
2019-05-15T19:27:18.835Z,99316.86
2019-05-15T19:32:22.011Z,99320.69
2019-05-15T19:37:25.034Z,99317.59
2019-05-15T19:42:28.650Z,99318.67
2019-05-15T19:47:31.951Z,99328.38
2019-05-15T19:52:35.064Z,99330.64
2019-05-15T19:57:39.168Z,99330.89
2019-05-15T20:02:42.456Z,99316.91
2019-05-15T20:07:47.992Z,99314.78
2019-05-15T20:12:51.187Z,99316.09
2019-05-15T20:17:54.144Z,99318.89
2019-05-15T20:23:00.275Z,99317.80
2019-05-15T20:28:02.533Z,99317.57
2019-05-15T20:33:06.035Z,99303.17
2019-05-15T20:38:09.250Z,99290.25
2019-05-15T20:43:12.246Z,99296.56
2019-05-15T20:48:15.304Z,99291.39
2019-05-15T20:53:18.639Z,99290.37
2019-05-15T20:58:22.358Z,99293.52
2019-05-15T21:03:25.339Z,99291.55
2019-05-15T21:08:28.889Z,99291.03
2019-05-15T21:13:32.181Z,99281.44
2019-05-15T21:18:35.257Z,99279.65
2019-05-15T21:23:38.690Z,99274.36
2019-05-15T21:28:41.870Z,99270.77
2019-05-15T21:33:45.172Z,99276.86
2019-05-15T21:38:48.202Z,99287.73
2019-05-15T21:43:51.301Z,99297.80
2019-05-15T21:48:54.282Z,99303.17
2019-05-15T21:53:58.206Z,99290.44
2019-05-15T21:59:02.396Z,99288.75
2019-05-15T22:04:05.411Z,99285.30
2019-05-15T22:09:11.336Z,99293.25
2019-05-15T22:14:14.348Z,99297.89
2019-05-15T22:19:18.061Z,99300.06
2019-05-15T22:24:22.961Z,99293.70
2019-05-15T22:29:28.628Z,99286.40
2019-05-15T22:34:31.161Z,99290.96
2019-05-15T22:39:34.189Z,99294.16
2019-05-15T22:44:38.460Z,99292.63
2019-05-15T22:49:41.809Z,99287.52
2019-05-15T22:54:44.969Z,99296.27
2019-05-15T22:59:48.741Z,99279.11
2019-05-15T23:04:51.855Z,99281.68
2019-05-15T23:09:54.809Z,99277.20
2019-05-15T23:14:59.279Z,99274.19
2019-05-15T23:20:02.313Z,99271.69
2019-05-15T23:25:07.009Z,99267.88
2019-05-15T23:30:10.186Z,99278.89
2019-05-15T23:35:13.245Z,99285.62
2019-05-15T23:40:17.973Z,99280.14
2019-05-15T23:45:21.250Z,99274.33
2019-05-15T23:50:24.188Z,99258.26
2019-05-15T23:55:28.479Z,99238.30
